createdAt,value
2023-05-20T00:01:43.116Z,15.88
2023-05-20T00:04:10.102Z,15.02
2023-05-20T00:06:36.853Z,17.70
2023-05-20T00:09:03.797Z,19.77
2023-05-20T00:11:31.452Z,17.17
2023-05-20T00:13:58.225Z,15.90
2023-05-20T00:16:24.928Z,14.75
2023-05-20T00:18:51.596Z,15.45
2023-05-20T00:21:18.277Z,15.55
2023-05-20T00:23:44.931Z,16.10
2023-05-20T00:26:11.597Z,15.65
2023-05-20T00:28:38.275Z,16.80
2023-05-20T00:31:05.160Z,19.67
2023-05-20T00:33:31.811Z,16.67
2023-05-20T00:35:58.477Z,16.08
2023-05-20T00:38:25.108Z,14.55
2023-05-20T00:40:51.805Z,15.40
2023-05-20T00:43:20.515Z,15.52
2023-05-20T00:45:47.958Z,15.45
2023-05-20T00:50:41.574Z,15.75
2023-05-20T00:53:09.086Z,16.42
2023-05-20T00:55:36.209Z,18.38
2023-05-20T00:58:03.069Z,17.83
2023-05-20T01:00:29.745Z,17.42
2023-05-20T01:02:57.254Z,16.98
2023-05-20T01:05:24.165Z,19.00
2023-05-20T01:07:51.263Z,14.57
2023-05-20T01:10:18.336Z,16.30
2023-05-20T01:12:56.299Z,14.88
2023-05-20T01:15:26.804Z,14.70
2023-05-20T01:18:01.889Z,16.65
2023-05-20T01:20:32.718Z,15.35
2023-05-20T01:22:59.616Z,16.38
2023-05-20T01:25:26.572Z,19.15
2023-05-20T01:27:55.308Z,17.90
2023-05-20T01:30:22.428Z,15.85
2023-05-20T01:32:52.661Z,15.75
2023-05-20T01:35:23.086Z,14.45
2023-05-20T01:37:52.389Z,16.05
2023-05-20T01:40:19.368Z,14.48
2023-05-20T01:42:53.047Z,12.98
2023-05-20T01:45:20.316Z,15.43
2023-05-20T01:47:47.405Z,16.08
2023-05-20T01:50:14.158Z,16.95
2023-05-20T01:52:40.891Z,17.23
2023-05-20T01:55:07.925Z,15.63
2023-05-20T01:57:34.609Z,23.15
2023-05-20T02:00:01.381Z,17.55
2023-05-20T02:02:28.185Z,16.02
2023-05-20T02:04:55.074Z,16.50
2023-05-20T02:07:21.820Z,13.82
2023-05-20T02:09:48.476Z,19.58
2023-05-20T02:12:18.073Z,19.85
2023-05-20T02:14:49.396Z,14.70
2023-05-20T02:17:17.368Z,17.27
2023-05-20T02:19:47.465Z,19.25
2023-05-20T02:22:14.907Z,20.50
2023-05-20T02:27:10.144Z,18.88
2023-05-20T02:29:37.135Z,16.40
2023-05-20T02:32:03.978Z,23.10
2023-05-20T02:34:32.180Z,16.15
2023-05-20T02:36:58.944Z,13.82
2023-05-20T02:39:25.742Z,15.10
2023-05-20T02:41:52.402Z,14.55
2023-05-20T02:44:19.061Z,18.25
2023-05-20T02:46:45.748Z,17.85
2023-05-20T02:49:12.450Z,19.45
2023-05-20T02:51:40.422Z,16.95
2023-05-20T02:54:07.052Z,16.25
2023-05-20T02:56:34.442Z,17.45
2023-05-20T03:01:29.217Z,17.38
2023-05-20T03:03:56.026Z,18.73
2023-05-20T03:06:22.892Z,15.25
2023-05-20T03:08:49.586Z,19.95
2023-05-20T03:11:16.305Z,14.48
2023-05-20T03:13:43.003Z,19.63
2023-05-20T03:16:09.829Z,14.43
2023-05-20T03:18:36.515Z,14.80
2023-05-20T03:21:03.175Z,17.95
2023-05-20T03:23:29.815Z,18.20
2023-05-20T03:25:56.536Z,17.55
2023-05-20T03:28:23.177Z,16.67
2023-05-20T03:30:49.800Z,16.88
2023-05-20T03:33:16.833Z,17.45
2023-05-20T03:35:43.495Z,20.17
2023-05-20T03:38:10.179Z,21.00
2023-05-20T03:40:36.968Z,15.70
2023-05-20T03:43:03.685Z,16.52
2023-05-20T03:45:30.376Z,18.27
2023-05-20T03:47:57.116Z,17.80
2023-05-20T03:50:23.811Z,19.45
2023-05-20T03:52:50.540Z,20.88
2023-05-20T03:55:17.222Z,18.05
2023-05-20T03:57:43.920Z,18.63
2023-05-20T04:00:12.257Z,17.80
2023-05-20T04:02:39.104Z,18.38
2023-05-20T04:05:08.740Z,21.13
2023-05-20T04:07:36.883Z,16.83
2023-05-20T04:10:05.142Z,24.60
2023-05-20T04:12:32.610Z,19.30
2023-05-20T04:17:30.328Z,17.98
2023-05-20T04:20:00.108Z,19.70
2023-05-20T04:22:27.500Z,19.17
2023-05-20T04:24:54.385Z,21.45
2023-05-20T04:27:21.742Z,15.35
2023-05-20T04:29:48.567Z,17.13
2023-05-20T04:32:18.916Z,20.30
2023-05-20T04:34:48.868Z,20.65
2023-05-20T04:37:16.194Z,19.33
2023-05-20T04:39:43.762Z,17.20
2023-05-20T04:42:10.859Z,14.90
2023-05-20T04:44:38.096Z,17.67
2023-05-20T04:47:04.835Z,18.35
2023-05-20T04:49:31.622Z,16.13
2023-05-20T04:51:58.733Z,17.92
2023-05-20T04:54:25.535Z,20.20
2023-05-20T04:56:52.309Z,17.80
2023-05-20T04:59:19.012Z,18.13
2023-05-20T05:01:45.647Z,19.08
2023-05-20T05:04:12.367Z,19.58
2023-05-20T05:06:39.063Z,18.85
2023-05-20T05:09:05.807Z,18.25
2023-05-20T05:11:32.580Z,19.25
2023-05-20T05:13:59.259Z,17.85
2023-05-20T05:16:26.090Z,17.10
2023-05-20T05:18:52.974Z,32.60
2023-05-20T05:21:19.987Z,17.00
2023-05-20T05:23:46.640Z,17.52
2023-05-20T05:26:13.243Z,18.25
2023-05-20T05:28:42.314Z,18.02
2023-05-20T05:31:09.439Z,19.45
2023-05-20T05:33:36.179Z,19.33
2023-05-20T05:36:03.085Z,19.85
2023-05-20T05:38:29.767Z,17.35
2023-05-20T05:40:56.513Z,16.33
2023-05-20T05:43:23.241Z,17.80
2023-05-20T05:45:49.869Z,14.90
2023-05-20T05:48:16.583Z,19.95
2023-05-20T05:50:46.913Z,13.80
2023-05-20T05:53:13.573Z,16.00
2023-05-20T05:55:40.359Z,13.98
2023-05-20T05:58:07.101Z,14.73
2023-05-20T06:00:33.927Z,16.25
2023-05-20T06:03:00.928Z,14.52
2023-05-20T06:05:29.325Z,15.90
2023-05-20T06:07:58.101Z,32.17
2023-05-20T06:10:24.904Z,13.98
2023-05-20T06:12:51.515Z,15.43
2023-05-20T06:15:18.267Z,16.80
2023-05-20T06:17:45.009Z,12.07
2023-05-20T06:20:12.171Z,16.00
2023-05-20T06:25:06.398Z,15.50
2023-05-20T06:27:33.438Z,14.80
2023-05-20T06:30:00.336Z,12.18
2023-05-20T06:32:27.801Z,13.30
2023-05-20T06:34:54.471Z,14.40
2023-05-20T06:37:24.496Z,15.18
2023-05-20T06:39:54.096Z,12.98
2023-05-20T06:42:21.632Z,16.58
2023-05-20T06:44:48.386Z,15.43
2023-05-20T06:47:16.840Z,12.23
2023-05-20T06:49:47.406Z,12.43
2023-05-20T06:52:14.625Z,10.82
2023-05-20T06:54:41.862Z,12.43
2023-05-20T06:59:38.986Z,11.68
2023-05-20T07:02:06.038Z,12.13
2023-05-20T07:06:59.368Z,13.23
2023-05-20T07:09:26.075Z,11.50
2023-05-20T07:11:52.691Z,11.73
2023-05-20T07:14:33.336Z,9.73
2023-05-20T07:16:59.981Z,11.50
2023-05-20T07:19:27.913Z,10.43
2023-05-20T07:21:54.626Z,11.25
2023-05-20T07:24:21.255Z,12.07
2023-05-20T07:26:47.980Z,10.68
2023-05-20T07:29:14.606Z,11.75
2023-05-20T07:31:41.295Z,11.63
2023-05-20T07:34:08.005Z,11.20
2023-05-20T07:36:34.711Z,9.82
2023-05-20T07:39:03.474Z,9.40
2023-05-20T07:41:32.077Z,10.68
2023-05-20T07:43:58.791Z,10.45
2023-05-20T07:46:25.615Z,11.00
2023-05-20T07:48:52.366Z,10.15
2023-05-20T07:51:19.279Z,7.93
2023-05-20T07:53:45.962Z,8.50
2023-05-20T07:56:12.620Z,10.60
2023-05-20T07:58:41.832Z,9.73
2023-05-20T08:01:09.499Z,9.85
2023-05-20T08:03:37.034Z,8.70
2023-05-20T08:06:04.053Z,9.85
2023-05-20T08:08:30.897Z,9.98
2023-05-20T08:10:57.630Z,9.23
2023-05-20T08:13:25.541Z,9.68
2023-05-20T08:15:54.746Z,9.70
2023-05-20T08:18:21.468Z,7.78
2023-05-20T08:20:48.231Z,8.30
2023-05-20T08:23:15.290Z,10.57
2023-05-20T08:25:41.902Z,8.52
2023-05-20T08:28:08.690Z,7.47
2023-05-20T08:30:35.372Z,7.10
2023-05-20T08:33:02.547Z,11.50
2023-05-20T08:40:22.756Z,8.05
2023-05-20T08:42:53.015Z,10.55
2023-05-20T08:45:27.783Z,9.27
2023-05-20T08:47:55.052Z,11.20
2023-05-20T08:50:22.259Z,12.35
2023-05-20T08:55:27.041Z,10.63
2023-05-20T08:57:55.095Z,7.50
2023-05-20T09:00:27.337Z,10.63
2023-05-20T09:02:54.932Z,10.57
2023-05-20T09:05:22.901Z,11.95
2023-05-20T09:07:49.809Z,8.93
2023-05-20T09:10:16.834Z,10.65
2023-05-20T09:12:43.813Z,11.80
2023-05-20T09:15:10.777Z,9.27
2023-05-20T09:17:38.567Z,9.73
2023-05-20T09:20:10.934Z,9.88
2023-05-20T09:22:39.481Z,8.30
2023-05-20T09:25:06.770Z,9.90
2023-05-20T09:27:34.144Z,9.55
2023-05-20T09:30:01.139Z,7.22
2023-05-20T09:32:29.107Z,7.57
2023-05-20T09:34:55.918Z,7.82
2023-05-20T09:37:24.622Z,6.38
2023-05-20T09:39:58.175Z,6.70
2023-05-20T09:42:29.091Z,4.60
2023-05-20T09:44:58.980Z,5.97
2023-05-20T09:47:27.155Z,12.55
2023-05-20T09:49:54.133Z,4.93
2023-05-20T09:52:21.612Z,6.95
2023-05-20T09:54:49.769Z,14.38
2023-05-20T09:57:16.491Z,8.38
2023-05-20T09:59:44.377Z,11.45
2023-05-20T10:02:11.208Z,6.50
2023-05-20T10:04:43.320Z,8.15
2023-05-20T10:07:20.917Z,10.50
2023-05-20T10:10:23.808Z,6.10
2023-05-20T10:13:04.667Z,5.80
2023-05-20T10:15:45.973Z,10.93
2023-05-20T10:18:31.080Z,9.20
2023-05-20T10:20:57.782Z,6.03
2023-05-20T10:23:31.619Z,6.82
2023-05-20T10:25:58.956Z,4.85
2023-05-20T10:28:38.621Z,8.82
2023-05-20T10:31:24.347Z,6.13
2023-05-20T10:33:53.606Z,8.67
2023-05-20T10:36:27.768Z,8.57
2023-05-20T10:38:56.660Z,4.55
2023-05-20T10:41:28.310Z,4.95
2023-05-20T10:44:05.664Z,6.95
2023-05-20T10:46:46.403Z,4.85
2023-05-20T10:49:23.274Z,5.60
2023-05-20T10:51:52.189Z,8.75
2023-05-20T10:54:18.902Z,10.27
2023-05-20T10:56:53.741Z,5.35
2023-05-20T10:59:21.934Z,6.55
2023-05-20T11:01:49.162Z,6.07
2023-05-20T11:04:17.462Z,9.32
2023-05-20T11:06:54.439Z,6.30
2023-05-20T11:25:20.191Z,11.52
2023-05-20T11:27:47.187Z,8.00
2023-05-20T11:30:18.625Z,8.65
2023-05-20T11:32:56.490Z,9.88
2023-05-20T11:35:24.380Z,5.85
2023-05-20T11:38:05.010Z,6.30
2023-05-20T11:40:42.526Z,5.78
2023-05-20T11:43:14.800Z,5.80
2023-05-20T11:45:43.468Z,8.90
2023-05-20T11:48:12.132Z,7.18
2023-05-20T11:50:41.083Z,7.18
2023-05-20T11:53:09.950Z,8.93
2023-05-20T11:55:48.973Z,5.85
2023-05-20T11:58:20.265Z,7.00
2023-05-20T12:00:51.708Z,6.65
2023-05-20T12:03:22.415Z,8.63
2023-05-20T12:05:51.308Z,4.57
2023-05-20T12:08:18.086Z,4.30
2023-05-20T12:10:47.698Z,4.47
2023-05-20T12:13:14.603Z,6.15
2023-05-20T12:15:41.365Z,6.50
2023-05-20T12:18:08.418Z,7.93
2023-05-20T12:20:36.596Z,5.15
2023-05-20T12:23:04.191Z,4.97
2023-05-20T12:25:30.848Z,4.93
2023-05-20T12:27:59.600Z,5.38
2023-05-20T12:30:26.351Z,5.18
2023-05-20T12:32:53.377Z,5.30
2023-05-20T12:35:41.397Z,4.03
2023-05-20T12:38:08.703Z,4.35
2023-05-20T12:40:36.630Z,9.15
2023-05-20T12:43:04.837Z,5.10
2023-05-20T12:45:31.753Z,4.32
2023-05-20T12:47:58.986Z,4.82
2023-05-20T12:50:26.123Z,4.53
2023-05-20T12:52:53.256Z,5.57
2023-05-20T12:55:20.011Z,4.90
2023-05-20T12:57:47.634Z,7.75
2023-05-20T13:00:15.123Z,11.35
2023-05-20T13:02:42.994Z,4.80
2023-05-20T13:05:10.682Z,9.18
2023-05-20T13:07:37.893Z,6.13
2023-05-20T13:12:31.599Z,5.32
2023-05-20T13:14:58.364Z,8.40
2023-05-20T13:17:25.092Z,7.82
2023-05-20T13:19:51.996Z,5.72
2023-05-20T13:22:18.728Z,6.03
2023-05-20T13:24:45.427Z,6.95
2023-05-20T13:27:12.153Z,8.20
2023-05-20T13:29:38.846Z,9.68
2023-05-20T13:32:05.862Z,7.10
2023-05-20T13:34:32.567Z,6.35
2023-05-20T13:36:59.302Z,13.77
2023-05-20T13:39:25.936Z,7.85
2023-05-20T13:41:55.048Z,4.30
2023-05-20T13:44:21.906Z,6.57
2023-05-20T13:46:48.628Z,5.18
2023-05-20T13:49:15.679Z,4.20
2023-05-20T13:51:42.392Z,5.40
2023-05-20T13:54:09.026Z,4.88
2023-05-20T13:56:35.833Z,8.32
2023-05-20T13:59:02.498Z,7.43
2023-05-20T14:01:30.964Z,6.18
2023-05-20T14:03:57.701Z,6.75
2023-05-20T14:06:24.880Z,5.75
2023-05-20T14:08:54.501Z,8.77
2023-05-20T14:11:21.901Z,7.85
2023-05-20T14:13:48.673Z,7.07
2023-05-20T14:16:15.864Z,7.70
2023-05-20T14:23:36.020Z,10.18
2023-05-20T14:26:02.705Z,8.40
2023-05-20T14:28:29.318Z,12.60
2023-05-20T14:30:55.974Z,7.53
2023-05-20T14:33:22.664Z,6.30
2023-05-20T14:35:49.297Z,9.00
2023-05-20T14:38:16.933Z,8.13
2023-05-20T14:40:43.755Z,9.00
2023-05-20T14:43:10.681Z,10.38
2023-05-20T14:45:40.491Z,8.18
2023-05-20T14:48:07.221Z,8.45
2023-05-20T14:50:34.219Z,6.53
2023-05-20T14:53:00.965Z,9.98
2023-05-20T14:55:27.617Z,12.45
2023-05-20T14:57:54.357Z,7.03
2023-05-20T15:00:21.132Z,15.60
2023-05-20T15:02:47.895Z,7.10
2023-05-20T15:05:14.867Z,7.00
2023-05-20T15:07:41.987Z,8.82
2023-05-20T15:10:08.938Z,6.60
2023-05-20T15:12:35.570Z,12.88
2023-05-20T15:15:02.472Z,7.85
2023-05-20T15:17:29.162Z,6.88
2023-05-20T15:19:55.880Z,8.25
2023-05-20T15:22:22.722Z,11.82
2023-05-20T15:24:49.486Z,9.93
2023-05-20T15:27:16.353Z,7.03
2023-05-20T15:29:43.192Z,9.13
2023-05-20T15:32:10.037Z,12.80
2023-05-20T15:34:36.766Z,11.45
2023-05-20T15:37:03.538Z,7.95
2023-05-20T15:39:30.211Z,8.20
2023-05-20T15:41:59.459Z,12.52
2023-05-20T15:44:26.587Z,9.23
2023-05-20T15:49:19.820Z,13.13
2023-05-20T15:51:55.775Z,11.20
2023-05-20T15:54:29.436Z,11.23
2023-05-20T15:56:56.337Z,8.32
2023-05-20T15:59:23.023Z,10.52
2023-05-20T16:01:49.744Z,9.95
2023-05-20T16:04:16.574Z,12.82
2023-05-20T16:06:43.488Z,11.00
2023-05-20T16:09:10.210Z,10.43
2023-05-20T16:11:36.885Z,12.30
2023-05-20T16:14:03.536Z,10.05
2023-05-20T16:16:30.303Z,9.90
2023-05-20T16:18:57.145Z,12.38
2023-05-20T16:21:25.096Z,11.57
2023-05-20T16:23:52.935Z,15.65
2023-05-20T16:26:19.731Z,14.00
2023-05-20T16:28:47.190Z,15.18
2023-05-20T16:31:13.987Z,26.02
2023-05-20T16:33:41.003Z,32.80
2023-05-20T16:36:07.850Z,15.80
2023-05-20T16:38:34.928Z,11.93
2023-05-20T16:41:01.986Z,11.88
2023-05-20T16:43:28.720Z,13.00
2023-05-20T16:45:55.547Z,12.00
2023-05-20T16:48:22.378Z,12.85
2023-05-20T16:50:49.107Z,13.85
2023-05-20T16:53:16.689Z,11.18
2023-05-20T16:55:43.476Z,10.82
2023-05-20T16:58:10.230Z,10.23
2023-05-20T17:00:36.992Z,9.00
2023-05-20T17:03:04.390Z,11.55
2023-05-20T17:05:31.467Z,14.57
2023-05-20T17:08:00.394Z,10.70
2023-05-20T17:10:28.681Z,11.98
2023-05-20T17:12:55.664Z,12.45
2023-05-20T17:15:23.731Z,12.55
2023-05-20T17:17:51.129Z,12.35
2023-05-20T17:22:44.571Z,10.50
2023-05-20T17:25:11.507Z,12.43
2023-05-20T17:27:38.212Z,11.48
2023-05-20T17:30:05.678Z,9.50
2023-05-20T17:32:32.457Z,10.65
2023-05-20T17:34:59.240Z,12.98
2023-05-20T17:37:26.166Z,11.95
2023-05-20T17:39:52.800Z,8.82
2023-05-20T17:42:19.677Z,9.43
2023-05-20T17:44:46.610Z,9.07
2023-05-20T17:47:13.489Z,16.10
2023-05-20T17:49:40.686Z,8.43
2023-05-20T17:52:07.763Z,11.77
2023-05-20T17:54:34.779Z,8.60
2023-05-20T17:57:01.681Z,8.55
2023-05-20T17:59:28.476Z,11.00
2023-05-20T18:01:55.182Z,9.45
2023-05-20T18:04:22.720Z,7.30
2023-05-20T18:06:49.484Z,8.80
2023-05-20T18:09:16.696Z,9.98
2023-05-20T18:11:43.380Z,26.10
2023-05-20T18:14:10.143Z,18.00
2023-05-20T18:16:36.932Z,10.07
2023-05-20T18:19:03.832Z,11.95
2023-05-20T18:21:30.485Z,11.05
2023-05-20T18:23:57.261Z,9.38
2023-05-20T18:26:24.134Z,10.57
2023-05-20T18:28:51.104Z,11.20
2023-05-20T18:31:17.871Z,9.23
2023-05-20T18:33:44.562Z,15.77
2023-05-20T18:36:11.355Z,15.18
2023-05-20T18:38:40.565Z,14.35
2023-05-20T18:41:08.171Z,13.48
2023-05-20T18:43:34.954Z,9.45
2023-05-20T18:46:01.793Z,10.25
2023-05-20T18:48:28.691Z,9.75
2023-05-20T18:50:56.443Z,12.27
2023-05-20T18:53:23.778Z,11.63
2023-05-20T18:58:17.370Z,19.05
2023-05-20T19:00:44.168Z,36.67
2023-05-20T19:03:11.591Z,31.42
2023-05-20T19:05:38.693Z,17.67
2023-05-20T19:13:00.158Z,18.15
2023-05-20T19:15:26.877Z,20.33
2023-05-20T19:17:53.821Z,17.10
2023-05-20T19:20:20.655Z,14.93
2023-05-20T19:22:47.656Z,12.63
2023-05-20T19:25:14.415Z,17.15
2023-05-20T19:27:41.417Z,8.98
2023-05-20T19:30:10.723Z,9.57
2023-05-20T19:32:38.506Z,6.95
2023-05-20T19:35:06.334Z,12.27
2023-05-20T19:37:33.321Z,6.40
2023-05-20T19:40:00.216Z,8.93
2023-05-20T19:42:26.973Z,7.57
2023-05-20T19:44:54.229Z,8.27
2023-05-20T19:47:21.622Z,7.25
2023-05-20T19:49:48.466Z,8.63
2023-05-20T19:52:15.624Z,8.60
2023-05-20T19:54:43.014Z,7.88
2023-05-20T19:57:10.170Z,11.80
2023-05-20T19:59:38.248Z,6.80
2023-05-20T20:02:06.253Z,9.05
2023-05-20T20:04:33.044Z,7.68
2023-05-20T20:07:00.279Z,6.72
2023-05-20T20:11:54.315Z,10.73
2023-05-20T20:14:21.692Z,9.85
2023-05-20T20:16:49.565Z,8.98
2023-05-20T20:19:18.787Z,9.75
2023-05-20T20:21:46.501Z,8.27
2023-05-20T20:24:13.161Z,9.38
2023-05-20T20:26:39.971Z,12.85
2023-05-20T20:29:07.576Z,15.57
2023-05-20T20:31:34.241Z,10.32
2023-05-20T20:34:01.037Z,8.98
2023-05-20T20:36:31.849Z,9.88
2023-05-20T20:38:59.580Z,9.95
2023-05-20T20:41:26.247Z,8.32
2023-05-20T20:43:53.286Z,9.35
2023-05-20T20:46:20.169Z,9.52
2023-05-20T20:48:47.041Z,9.70
2023-05-20T20:51:15.202Z,7.97
2023-05-20T20:53:42.217Z,7.13
2023-05-20T20:56:10.053Z,7.05
2023-05-20T20:58:40.262Z,8.13
2023-05-20T21:01:07.235Z,6.30
2023-05-20T21:03:40.687Z,5.15
2023-05-20T21:06:08.141Z,6.25
2023-05-20T21:08:34.934Z,8.82
2023-05-20T21:11:01.701Z,7.90
2023-05-20T21:13:31.511Z,7.28
2023-05-20T21:15:58.145Z,7.03
2023-05-20T21:18:24.973Z,5.95
2023-05-20T21:20:53.339Z,6.18
2023-05-20T21:23:21.575Z,7.03
2023-05-20T21:25:48.949Z,8.23
2023-05-20T21:30:42.871Z,7.88
2023-05-20T21:33:09.633Z,6.88
2023-05-20T21:35:36.657Z,7.43
2023-05-20T21:38:03.532Z,7.28
2023-05-20T21:40:30.254Z,7.45
2023-05-20T21:42:57.017Z,11.00
2023-05-20T21:45:23.658Z,11.38
2023-05-20T21:47:50.469Z,7.95
2023-05-20T21:50:17.242Z,7.45
2023-05-20T21:52:43.904Z,8.05
2023-05-20T21:55:10.706Z,8.55
2023-05-20T21:57:37.597Z,12.20
2023-05-20T22:00:11.257Z,9.43
2023-05-20T22:02:38.199Z,8.68
2023-05-20T22:05:05.289Z,9.18
2023-05-20T22:07:33.162Z,6.68
2023-05-20T22:10:00.864Z,18.85
2023-05-20T22:12:27.820Z,10.57
2023-05-20T22:14:54.566Z,11.45
2023-05-20T22:17:21.840Z,10.20
2023-05-20T22:22:15.457Z,11.23
2023-05-20T22:24:42.141Z,18.70
2023-05-20T22:27:08.797Z,9.68
2023-05-20T22:29:35.739Z,10.70
2023-05-20T22:32:02.595Z,7.65
2023-05-20T22:34:29.344Z,10.10
2023-05-20T22:36:55.990Z,9.70
2023-05-20T22:39:22.659Z,8.18
2023-05-20T22:41:49.441Z,7.65
2023-05-20T22:44:16.157Z,7.93
2023-05-20T22:46:42.849Z,10.80
2023-05-20T22:49:10.430Z,8.90
2023-05-20T22:51:38.736Z,8.73
2023-05-20T22:54:06.979Z,9.30
2023-05-20T22:56:34.321Z,17.75
2023-05-20T22:59:01.484Z,9.63
2023-05-20T23:01:28.300Z,32.85
2023-05-20T23:03:55.145Z,10.70
2023-05-20T23:06:22.668Z,14.73
2023-05-20T23:08:49.698Z,11.43
2023-05-20T23:11:16.586Z,31.13
2023-05-20T23:13:43.375Z,12.63
2023-05-20T23:16:10.331Z,25.67
2023-05-20T23:18:37.278Z,21.63
2023-05-20T23:21:04.301Z,52.40
2023-05-20T23:23:32.188Z,33.20
2023-05-20T23:25:59.961Z,11.52
2023-05-20T23:28:26.910Z,20.02
2023-05-20T23:30:54.538Z,10.95
2023-05-20T23:33:25.056Z,12.25
2023-05-20T23:35:52.771Z,9.30
2023-05-20T23:38:19.457Z,25.10
2023-05-20T23:40:46.078Z,26.75
2023-05-20T23:43:12.924Z,25.23
2023-05-20T23:45:39.613Z,8.57
2023-05-20T23:48:09.874Z,11.15
2023-05-20T23:50:36.817Z,7.43
2023-05-20T23:53:03.750Z,8.98
2023-05-20T23:55:30.357Z,7.35
2023-05-20T23:57:56.980Z,10.55
